sensor_id;sensor_type;location;lat;lon;timestamp;P1;durP1;ratioP1;P2;durP2;ratioP2
12725;SDS011;6427;49.754;6.106;2023-03-11T00:01:04;3.63;;;1.67;;
12725;SDS011;6427;49.754;6.106;2023-03-11T00:03:31;6.73;;;2.20;;
12725;SDS011;6427;49.754;6.106;2023-03-11T00:06:00;6.83;;;2.20;;
12725;SDS011;6427;49.754;6.106;2023-03-11T00:08:26;5.30;;;2.10;;
12725;SDS011;6427;49.754;6.106;2023-03-11T00:10:55;4.03;;;1.47;;
12725;SDS011;6427;49.754;6.106;2023-03-11T00:13:22;5.60;;;2.00;;
12725;SDS011;6427;49.754;6.106;2023-03-11T00:15:50;7.57;;;1.47;;
12725;SDS011;6427;49.754;6.106;2023-03-11T00:18:17;5.40;;;1.63;;
12725;SDS011;6427;49.754;6.106;2023-03-11T00:20:46;4.70;;;1.57;;
12725;SDS011;6427;49.754;6.106;2023-03-11T00:23:13;6.57;;;1.33;;
12725;SDS011;6427;49.754;6.106;2023-03-11T00:25:42;8.37;;;1.47;;
12725;SDS011;6427;49.754;6.106;2023-03-11T00:28:08;7.17;;;1.40;;
12725;SDS011;6427;49.754;6.106;2023-03-11T00:30:39;5.80;;;1.33;;
12725;SDS011;6427;49.754;6.106;2023-03-11T00:33:07;3.53;;;1.03;;
12725;SDS011;6427;49.754;6.106;2023-03-11T00:35:34;3.57;;;1.10;;
12725;SDS011;6427;49.754;6.106;2023-03-11T00:40:41;6.85;;;1.70;;
12725;SDS011;6427;49.754;6.106;2023-03-11T00:43:08;3.43;;;0.90;;
12725;SDS011;6427;49.754;6.106;2023-03-11T00:45:35;3.17;;;0.90;;
12725;SDS011;6427;49.754;6.106;2023-03-11T00:48:03;5.07;;;1.13;;
12725;SDS011;6427;49.754;6.106;2023-03-11T00:50:32;4.87;;;1.33;;
12725;SDS011;6427;49.754;6.106;2023-03-11T00:52:58;3.57;;;0.97;;
12725;SDS011;6427;49.754;6.106;2023-03-11T00:55:28;5.20;;;1.67;;
12725;SDS011;6427;49.754;6.106;2023-03-11T00:57:56;3.07;;;0.87;;
12725;SDS011;6427;49.754;6.106;2023-03-11T01:00:23;2.23;;;1.07;;
12725;SDS011;6427;49.754;6.106;2023-03-11T01:02:50;3.17;;;1.20;;
12725;SDS011;6427;49.754;6.106;2023-03-11T01:05:18;4.03;;;1.00;;
12725;SDS011;6427;49.754;6.106;2023-03-11T01:07:45;5.57;;;1.10;;
12725;SDS011;6427;49.754;6.106;2023-03-11T01:10:13;6.20;;;1.37;;
12725;SDS011;6427;49.754;6.106;2023-03-11T01:12:40;4.40;;;0.90;;
12725;SDS011;6427;49.754;6.106;2023-03-11T01:15:10;4.43;;;0.97;;
12725;SDS011;6427;49.754;6.106;2023-03-11T01:17:37;5.83;;;1.07;;
12725;SDS011;6427;49.754;6.106;2023-03-11T01:20:05;2.53;;;1.00;;
12725;SDS011;6427;49.754;6.106;2023-03-11T01:22:32;7.15;;;1.80;;
12725;SDS011;6427;49.754;6.106;2023-03-11T01:25:01;3.03;;;0.83;;
12725;SDS011;6427;49.754;6.106;2023-03-11T01:27:29;5.03;;;1.00;;
12725;SDS011;6427;49.754;6.106;2023-03-11T01:29:57;5.87;;;1.23;;
12725;SDS011;6427;49.754;6.106;2023-03-11T01:32:24;5.37;;;1.10;;
12725;SDS011;6427;49.754;6.106;2023-03-11T01:34:52;4.83;;;1.13;;
12725;SDS011;6427;49.754;6.106;2023-03-11T01:37:20;5.33;;;1.30;;
12725;SDS011;6427;49.754;6.106;2023-03-11T01:39:48;3.17;;;0.90;;
12725;SDS011;6427;49.754;6.106;2023-03-11T01:42:15;4.07;;;1.03;;
12725;SDS011;6427;49.754;6.106;2023-03-11T01:44:43;4.47;;;1.50;;
12725;SDS011;6427;49.754;6.106;2023-03-11T01:49:38;8.82;;;1.90;;
12725;SDS011;6427;49.754;6.106;2023-03-11T01:52:05;3.97;;;1.50;;
12725;SDS011;6427;49.754;6.106;2023-03-11T01:54:36;1.83;;;0.93;;
12725;SDS011;6427;49.754;6.106;2023-03-11T01:57:07;5.32;;;1.75;;
12725;SDS011;6427;49.754;6.106;2023-03-11T01:59:38;7.83;;;1.20;;
12725;SDS011;6427;49.754;6.106;2023-03-11T02:02:11;6.43;;;1.40;;
12725;SDS011;6427;49.754;6.106;2023-03-11T02:04:37;8.40;;;1.60;;
12725;SDS011;6427;49.754;6.106;2023-03-11T02:07:06;3.30;;;0.87;;
12725;SDS011;6427;49.754;6.106;2023-03-11T02:09:33;4.30;;;1.50;;
12725;SDS011;6427;49.754;6.106;2023-03-11T02:12:01;2.90;;;1.20;;
12725;SDS011;6427;49.754;6.106;2023-03-11T02:14:28;5.43;;;1.30;;
12725;SDS011;6427;49.754;6.106;2023-03-11T02:16:56;7.07;;;1.63;;
12725;SDS011;6427;49.754;6.106;2023-03-11T02:22:29;1.97;;;0.90;;
12725;SDS011;6427;49.754;6.106;2023-03-11T02:27:37;3.23;;;1.10;;
12725;SDS011;6427;49.754;6.106;2023-03-11T02:30:04;6.20;;;1.23;;
12725;SDS011;6427;49.754;6.106;2023-03-11T02:32:31;5.57;;;1.30;;
12725;SDS011;6427;49.754;6.106;2023-03-11T02:34:59;2.93;;;1.10;;
12725;SDS011;6427;49.754;6.106;2023-03-11T02:37:26;5.23;;;1.10;;
12725;SDS011;6427;49.754;6.106;2023-03-11T02:39:54;3.35;;;1.65;;
12725;SDS011;6427;49.754;6.106;2023-03-11T02:42:23;5.90;;;1.60;;
12725;SDS011;6427;49.754;6.106;2023-03-11T02:44:53;4.17;;;1.23;;
12725;SDS011;6427;49.754;6.106;2023-03-11T02:47:20;3.33;;;1.27;;
12725;SDS011;6427;49.754;6.106;2023-03-11T02:49:48;4.50;;;1.67;;
12725;SDS011;6427;49.754;6.106;2023-03-11T02:52:15;3.27;;;1.23;;
12725;SDS011;6427;49.754;6.106;2023-03-11T02:54:43;5.17;;;1.30;;
12725;SDS011;6427;49.754;6.106;2023-03-11T02:57:11;5.70;;;1.23;;
12725;SDS011;6427;49.754;6.106;2023-03-11T02:59:38;4.53;;;1.50;;
12725;SDS011;6427;49.754;6.106;2023-03-11T03:02:06;4.87;;;2.00;;
12725;SDS011;6427;49.754;6.106;2023-03-11T03:04:34;6.03;;;2.13;;
12725;SDS011;6427;49.754;6.106;2023-03-11T03:07:01;7.33;;;3.27;;
12725;SDS011;6427;49.754;6.106;2023-03-11T03:09:29;6.07;;;1.77;;
12725;SDS011;6427;49.754;6.106;2023-03-11T03:11:56;6.27;;;2.30;;
12725;SDS011;6427;49.754;6.106;2023-03-11T03:14:24;7.10;;;3.37;;
12725;SDS011;6427;49.754;6.106;2023-03-11T03:16:51;7.13;;;2.67;;
12725;SDS011;6427;49.754;6.106;2023-03-11T03:19:19;5.50;;;2.17;;
12725;SDS011;6427;49.754;6.106;2023-03-11T03:21:47;4.30;;;1.97;;
12725;SDS011;6427;49.754;6.106;2023-03-11T03:24:15;8.27;;;2.40;;
12725;SDS011;6427;49.754;6.106;2023-03-11T03:26:42;3.43;;;1.87;;
12725;SDS011;6427;49.754;6.106;2023-03-11T03:29:10;7.43;;;2.10;;
12725;SDS011;6427;49.754;6.106;2023-03-11T03:31:38;9.47;;;1.90;;
12725;SDS011;6427;49.754;6.106;2023-03-11T03:34:06;6.27;;;1.87;;
12725;SDS011;6427;49.754;6.106;2023-03-11T03:36:33;6.63;;;1.80;;
12725;SDS011;6427;49.754;6.106;2023-03-11T03:39:01;6.93;;;2.20;;
12725;SDS011;6427;49.754;6.106;2023-03-11T03:41:28;3.90;;;2.00;;
12725;SDS011;6427;49.754;6.106;2023-03-11T03:43:56;9.70;;;5.70;;
12725;SDS011;6427;49.754;6.106;2023-03-11T03:46:23;19.73;;;8.60;;
12725;SDS011;6427;49.754;6.106;2023-03-11T03:48:51;13.30;;;5.97;;
12725;SDS011;6427;49.754;6.106;2023-03-11T03:51:19;12.60;;;4.67;;
12725;SDS011;6427;49.754;6.106;2023-03-11T03:53:47;18.00;;;4.80;;
12725;SDS011;6427;49.754;6.106;2023-03-11T03:56:15;8.67;;;2.50;;
12725;SDS011;6427;49.754;6.106;2023-03-11T03:58:43;7.47;;;2.30;;
12725;SDS011;6427;49.754;6.106;2023-03-11T04:01:10;8.67;;;3.10;;
12725;SDS011;6427;49.754;6.106;2023-03-11T04:03:38;8.60;;;3.20;;
12725;SDS011;6427;49.754;6.106;2023-03-11T04:08:36;8.20;;;2.20;;
12725;SDS011;6427;49.754;6.106;2023-03-11T04:11:04;7.50;;;2.20;;
12725;SDS011;6427;49.754;6.106;2023-03-11T04:13:31;4.77;;;1.80;;
12725;SDS011;6427;49.754;6.106;2023-03-11T04:16:01;5.13;;;1.80;;
12725;SDS011;6427;49.754;6.106;2023-03-11T04:18:27;3.53;;;1.40;;
12725;SDS011;6427;49.754;6.106;2023-03-11T04:20:55;3.47;;;1.67;;
12725;SDS011;6427;49.754;6.106;2023-03-11T04:23:23;5.60;;;1.90;;
12725;SDS011;6427;49.754;6.106;2023-03-11T04:25:51;3.80;;;1.67;;
12725;SDS011;6427;49.754;6.106;2023-03-11T04:28:18;4.37;;;1.73;;
12725;SDS011;6427;49.754;6.106;2023-03-11T04:30:47;6.40;;;2.37;;
12725;SDS011;6427;49.754;6.106;2023-03-11T04:33:14;8.27;;;2.47;;
12725;SDS011;6427;49.754;6.106;2023-03-11T04:35:42;10.15;;;2.33;;
12725;SDS011;6427;49.754;6.106;2023-03-11T04:38:10;4.73;;;1.83;;
12725;SDS011;6427;49.754;6.106;2023-03-11T04:40:37;5.23;;;1.73;;
12725;SDS011;6427;49.754;6.106;2023-03-11T04:43:05;4.97;;;2.00;;
12725;SDS011;6427;49.754;6.106;2023-03-11T04:45:33;4.90;;;1.70;;
12725;SDS011;6427;49.754;6.106;2023-03-11T04:48:00;3.07;;;1.50;;
12725;SDS011;6427;49.754;6.106;2023-03-11T04:50:28;8.63;;;2.67;;
12725;SDS011;6427;49.754;6.106;2023-03-11T04:52:56;11.10;;;3.53;;
12725;SDS011;6427;49.754;6.106;2023-03-11T04:55:24;10.13;;;3.57;;
12725;SDS011;6427;49.754;6.106;2023-03-11T04:57:51;9.43;;;2.67;;
12725;SDS011;6427;49.754;6.106;2023-03-11T05:00:19;5.80;;;2.10;;
12725;SDS011;6427;49.754;6.106;2023-03-11T05:02:47;7.27;;;2.40;;
12725;SDS011;6427;49.754;6.106;2023-03-11T05:05:15;6.83;;;1.67;;
12725;SDS011;6427;49.754;6.106;2023-03-11T05:07:43;4.97;;;1.73;;
12725;SDS011;6427;49.754;6.106;2023-03-11T05:10:10;7.78;;;2.50;;
12725;SDS011;6427;49.754;6.106;2023-03-11T05:12:38;4.47;;;1.60;;
12725;SDS011;6427;49.754;6.106;2023-03-11T05:15:06;7.77;;;2.00;;
12725;SDS011;6427;49.754;6.106;2023-03-11T05:17:33;6.97;;;2.27;;
12725;SDS011;6427;49.754;6.106;2023-03-11T05:20:01;7.80;;;2.10;;
12725;SDS011;6427;49.754;6.106;2023-03-11T05:22:28;7.10;;;1.90;;
12725;SDS011;6427;49.754;6.106;2023-03-11T05:24:56;7.03;;;2.30;;
12725;SDS011;6427;49.754;6.106;2023-03-11T05:27:23;5.80;;;1.80;;
12725;SDS011;6427;49.754;6.106;2023-03-11T05:29:52;4.83;;;1.60;;
12725;SDS011;6427;49.754;6.106;2023-03-11T05:32:20;5.13;;;1.57;;
12725;SDS011;6427;49.754;6.106;2023-03-11T05:34:47;5.00;;;1.70;;
12725;SDS011;6427;49.754;6.106;2023-03-11T05:37:15;5.43;;;1.63;;
12725;SDS011;6427;49.754;6.106;2023-03-11T05:39:43;4.80;;;2.08;;
12725;SDS011;6427;49.754;6.106;2023-03-11T05:42:11;7.60;;;1.90;;
12725;SDS011;6427;49.754;6.106;2023-03-11T05:44:38;5.67;;;1.80;;
12725;SDS011;6427;49.754;6.106;2023-03-11T05:47:06;3.53;;;1.40;;
12725;SDS011;6427;49.754;6.106;2023-03-11T05:49:34;7.20;;;1.53;;
12725;SDS011;6427;49.754;6.106;2023-03-11T05:52:01;6.00;;;1.93;;
12725;SDS011;6427;49.754;6.106;2023-03-11T05:54:29;5.67;;;1.90;;
12725;SDS011;6427;49.754;6.106;2023-03-11T05:56:56;6.90;;;3.33;;
12725;SDS011;6427;49.754;6.106;2023-03-11T05:59:24;10.50;;;4.33;;
12725;SDS011;6427;49.754;6.106;2023-03-11T06:01:51;14.27;;;6.67;;
12725;SDS011;6427;49.754;6.106;2023-03-11T06:04:20;8.80;;;4.37;;
12725;SDS011;6427;49.754;6.106;2023-03-11T06:06:47;7.87;;;3.60;;
12725;SDS011;6427;49.754;6.106;2023-03-11T06:09:15;10.20;;;3.63;;
12725;SDS011;6427;49.754;6.106;2023-03-11T06:11:43;11.93;;;4.13;;
12725;SDS011;6427;49.754;6.106;2023-03-11T06:14:11;7.27;;;2.67;;
12725;SDS011;6427;49.754;6.106;2023-03-11T06:16:39;5.23;;;2.20;;
12725;SDS011;6427;49.754;6.106;2023-03-11T06:19:07;8.32;;;2.83;;
12725;SDS011;6427;49.754;6.106;2023-03-11T06:21:35;4.50;;;1.60;;
12725;SDS011;6427;49.754;6.106;2023-03-11T06:24:02;4.40;;;1.87;;
12725;SDS011;6427;49.754;6.106;2023-03-11T06:26:30;3.97;;;1.67;;
12725;SDS011;6427;49.754;6.106;2023-03-11T06:28:58;3.67;;;1.53;;
12725;SDS011;6427;49.754;6.106;2023-03-11T06:31:27;4.13;;;2.27;;
12725;SDS011;6427;49.754;6.106;2023-03-11T06:33:53;4.33;;;2.00;;
12725;SDS011;6427;49.754;6.106;2023-03-11T06:36:23;6.47;;;2.27;;
12725;SDS011;6427;49.754;6.106;2023-03-11T06:38:52;6.60;;;1.97;;
12725;SDS011;6427;49.754;6.106;2023-03-11T06:41:19;4.83;;;2.57;;
12725;SDS011;6427;49.754;6.106;2023-03-11T06:43:46;6.27;;;2.23;;
12725;SDS011;6427;49.754;6.106;2023-03-11T06:46:18;5.70;;;2.20;;
12725;SDS011;6427;49.754;6.106;2023-03-11T06:48:45;5.80;;;2.43;;
12725;SDS011;6427;49.754;6.106;2023-03-11T06:51:13;4.43;;;2.03;;
12725;SDS011;6427;49.754;6.106;2023-03-11T06:53:41;6.70;;;2.20;;
12725;SDS011;6427;49.754;6.106;2023-03-11T06:56:12;9.17;;;2.17;;
12725;SDS011;6427;49.754;6.106;2023-03-11T06:58:39;11.53;;;3.37;;
12725;SDS011;6427;49.754;6.106;2023-03-11T07:01:11;7.50;;;2.00;;
12725;SDS011;6427;49.754;6.106;2023-03-11T07:03:34;7.80;;;2.47;;
12725;SDS011;6427;49.754;6.106;2023-03-11T07:06:01;8.20;;;2.47;;
12725;SDS011;6427;49.754;6.106;2023-03-11T07:08:29;5.73;;;2.20;;
12725;SDS011;6427;49.754;6.106;2023-03-11T07:11:04;10.43;;;2.23;;
12725;SDS011;6427;49.754;6.106;2023-03-11T07:13:34;8.90;;;3.07;;
12725;SDS011;6427;49.754;6.106;2023-03-11T07:16:02;6.37;;;2.63;;
12725;SDS011;6427;49.754;6.106;2023-03-11T07:18:31;6.00;;;2.50;;
12725;SDS011;6427;49.754;6.106;2023-03-11T07:21:00;5.23;;;2.37;;
12725;SDS011;6427;49.754;6.106;2023-03-11T07:23:26;6.90;;;2.80;;
12725;SDS011;6427;49.754;6.106;2023-03-11T07:25:54;8.02;;;3.17;;
12725;SDS011;6427;49.754;6.106;2023-03-11T07:28:22;4.77;;;2.40;;
12725;SDS011;6427;49.754;6.106;2023-03-11T07:30:50;6.70;;;2.27;;
12725;SDS011;6427;49.754;6.106;2023-03-11T07:33:18;6.90;;;2.23;;
12725;SDS011;6427;49.754;6.106;2023-03-11T07:35:45;8.77;;;2.23;;
12725;SDS011;6427;49.754;6.106;2023-03-11T07:38:13;7.47;;;2.13;;
12725;SDS011;6427;49.754;6.106;2023-03-11T07:40:40;7.80;;;2.10;;
12725;SDS011;6427;49.754;6.106;2023-03-11T07:43:08;4.73;;;2.40;;
12725;SDS011;6427;49.754;6.106;2023-03-11T07:45:36;7.30;;;2.23;;
12725;SDS011;6427;49.754;6.106;2023-03-11T07:48:04;6.93;;;2.20;;
12725;SDS011;6427;49.754;6.106;2023-03-11T07:50:32;9.63;;;2.60;;
12725;SDS011;6427;49.754;6.106;2023-03-11T07:53:00;5.07;;;2.83;;
12725;SDS011;6427;49.754;6.106;2023-03-11T07:55:28;7.80;;;3.30;;
12725;SDS011;6427;49.754;6.106;2023-03-11T07:57:55;17.53;;;7.37;;
12725;SDS011;6427;49.754;6.106;2023-03-11T08:00:23;19.77;;;7.57;;
12725;SDS011;6427;49.754;6.106;2023-03-11T08:02:51;14.03;;;5.40;;
12725;SDS011;6427;49.754;6.106;2023-03-11T08:05:19;19.47;;;7.23;;
12725;SDS011;6427;49.754;6.106;2023-03-11T08:07:46;17.55;;;7.28;;
12725;SDS011;6427;49.754;6.106;2023-03-11T08:10:15;13.57;;;5.67;;
12725;SDS011;6427;49.754;6.106;2023-03-11T08:12:42;13.30;;;5.90;;
12725;SDS011;6427;49.754;6.106;2023-03-11T08:15:10;13.53;;;5.23;;
12725;SDS011;6427;49.754;6.106;2023-03-11T08:17:37;9.10;;;3.60;;
12725;SDS011;6427;49.754;6.106;2023-03-11T08:20:06;12.18;;;5.53;;
12725;SDS011;6427;49.754;6.106;2023-03-11T08:22:33;9.97;;;4.43;;
12725;SDS011;6427;49.754;6.106;2023-03-11T08:25:01;5.93;;;3.50;;
12725;SDS011;6427;49.754;6.106;2023-03-11T08:27:28;9.37;;;4.27;;
12725;SDS011;6427;49.754;6.106;2023-03-11T08:29:57;7.70;;;3.73;;
12725;SDS011;6427;49.754;6.106;2023-03-11T08:32:24;8.23;;;4.00;;
12725;SDS011;6427;49.754;6.106;2023-03-11T08:34:52;11.97;;;4.57;;
12725;SDS011;6427;49.754;6.106;2023-03-11T08:37:19;9.38;;;5.43;;
12725;SDS011;6427;49.754;6.106;2023-03-11T08:39:47;10.77;;;4.97;;
12725;SDS011;6427;49.754;6.106;2023-03-11T08:42:15;8.40;;;4.53;;
12725;SDS011;6427;49.754;6.106;2023-03-11T08:44:42;11.43;;;4.27;;
12725;SDS011;6427;49.754;6.106;2023-03-11T08:47:10;7.53;;;4.10;;
12725;SDS011;6427;49.754;6.106;2023-03-11T08:49:37;6.87;;;3.67;;
12725;SDS011;6427;49.754;6.106;2023-03-11T08:52:05;10.33;;;3.97;;
12725;SDS011;6427;49.754;6.106;2023-03-11T08:54:32;11.65;;;4.75;;
12725;SDS011;6427;49.754;6.106;2023-03-11T08:57:00;12.57;;;4.07;;
12725;SDS011;6427;49.754;6.106;2023-03-11T08:59:28;6.47;;;3.13;;
12725;SDS011;6427;49.754;6.106;2023-03-11T09:01:56;7.70;;;3.33;;
12725;SDS011;6427;49.754;6.106;2023-03-11T09:04:23;8.47;;;3.47;;
12725;SDS011;6427;49.754;6.106;2023-03-11T09:06:51;10.63;;;3.83;;
12725;SDS011;6427;49.754;6.106;2023-03-11T09:09:19;6.63;;;2.77;;
12725;SDS011;6427;49.754;6.106;2023-03-11T09:11:47;8.83;;;2.80;;
12725;SDS011;6427;49.754;6.106;2023-03-11T09:14:14;6.22;;;3.12;;
12725;SDS011;6427;49.754;6.106;2023-03-11T09:16:43;12.30;;;3.47;;
12725;SDS011;6427;49.754;6.106;2023-03-11T09:19:10;8.37;;;3.30;;
12725;SDS011;6427;49.754;6.106;2023-03-11T09:21:38;7.23;;;3.43;;
12725;SDS011;6427;49.754;6.106;2023-03-11T09:24:05;4.83;;;2.30;;
12725;SDS011;6427;49.754;6.106;2023-03-11T09:26:33;6.07;;;2.07;;
12725;SDS011;6427;49.754;6.106;2023-03-11T09:29:01;6.50;;;2.80;;
12725;SDS011;6427;49.754;6.106;2023-03-11T09:31:29;6.63;;;3.00;;
12725;SDS011;6427;49.754;6.106;2023-03-11T09:33:57;7.03;;;2.80;;
12725;SDS011;6427;49.754;6.106;2023-03-11T09:36:25;4.53;;;2.40;;
12725;SDS011;6427;49.754;6.106;2023-03-11T09:38:53;10.70;;;4.07;;
12725;SDS011;6427;49.754;6.106;2023-03-11T09:41:34;7.00;;;2.47;;
12725;SDS011;6427;49.754;6.106;2023-03-11T09:44:20;7.63;;;3.47;;
12725;SDS011;6427;49.754;6.106;2023-03-11T09:47:16;4.33;;;2.00;;
12725;SDS011;6427;49.754;6.106;2023-03-11T09:50:10;6.60;;;2.10;;
12725;SDS011;6427;49.754;6.106;2023-03-11T09:55:15;6.53;;;2.00;;
12725;SDS011;6427;49.754;6.106;2023-03-11T09:57:39;7.60;;;2.17;;
12725;SDS011;6427;49.754;6.106;2023-03-11T10:00:06;5.60;;;1.80;;
12725;SDS011;6427;49.754;6.106;2023-03-11T10:02:34;8.90;;;5.43;;
12725;SDS011;6427;49.754;6.106;2023-03-11T10:05:05;3.70;;;1.40;;
12725;SDS011;6427;49.754;6.106;2023-03-11T10:07:32;5.60;;;1.13;;
12725;SDS011;6427;49.754;6.106;2023-03-11T10:09:57;2.30;;;1.07;;
12725;SDS011;6427;49.754;6.106;2023-03-11T10:20:47;3.23;;;1.30;;
12725;SDS011;6427;49.754;6.106;2023-03-11T10:23:18;4.33;;;1.30;;
12725;SDS011;6427;49.754;6.106;2023-03-11T10:25:57;5.13;;;1.50;;
12725;SDS011;6427;49.754;6.106;2023-03-11T10:28:26;6.13;;;1.40;;
12725;SDS011;6427;49.754;6.106;2023-03-11T10:31:02;4.43;;;1.13;;
12725;SDS011;6427;49.754;6.106;2023-03-11T10:33:34;6.70;;;1.60;;
12725;SDS011;6427;49.754;6.106;2023-03-11T10:36:52;6.57;;;1.40;;
12725;SDS011;6427;49.754;6.106;2023-03-11T10:38:41;4.93;;;1.40;;
12725;SDS011;6427;49.754;6.106;2023-03-11T10:41:16;3.97;;;1.50;;
12725;SDS011;6427;49.754;6.106;2023-03-11T10:43:50;3.43;;;1.37;;
12725;SDS011;6427;49.754;6.106;2023-03-11T10:46:19;5.00;;;1.60;;
12725;SDS011;6427;49.754;6.106;2023-03-11T10:48:45;3.57;;;1.50;;
12725;SDS011;6427;49.754;6.106;2023-03-11T10:51:15;5.87;;;1.50;;
12725;SDS011;6427;49.754;6.106;2023-03-11T10:53:49;3.83;;;1.20;;
12725;SDS011;6427;49.754;6.106;2023-03-11T10:56:24;5.40;;;1.67;;
12725;SDS011;6427;49.754;6.106;2023-03-11T10:58:53;3.93;;;1.10;;
12725;SDS011;6427;49.754;6.106;2023-03-11T11:01:21;5.37;;;1.40;;
12725;SDS011;6427;49.754;6.106;2023-03-11T11:03:49;8.10;;;1.37;;
12725;SDS011;6427;49.754;6.106;2023-03-11T11:06:32;3.70;;;1.13;;
12725;SDS011;6427;49.754;6.106;2023-03-11T11:09:15;7.33;;;1.50;;
12725;SDS011;6427;49.754;6.106;2023-03-11T11:14:46;2.43;;;1.17;;
12725;SDS011;6427;49.754;6.106;2023-03-11T11:17:17;3.77;;;1.40;;
12725;SDS011;6427;49.754;6.106;2023-03-11T11:19:44;4.73;;;1.20;;
12725;SDS011;6427;49.754;6.106;2023-03-11T11:22:13;6.57;;;1.57;;
12725;SDS011;6427;49.754;6.106;2023-03-11T11:24:42;7.73;;;1.67;;
12725;SDS011;6427;49.754;6.106;2023-03-11T11:29:37;3.70;;;1.30;;
12725;SDS011;6427;49.754;6.106;2023-03-11T11:32:15;4.77;;;1.80;;
12725;SDS011;6427;49.754;6.106;2023-03-11T11:34:41;3.20;;;1.10;;
12725;SDS011;6427;49.754;6.106;2023-03-11T11:37:10;5.17;;;1.27;;
12725;SDS011;6427;49.754;6.106;2023-03-11T11:39:43;2.50;;;1.20;;
12725;SDS011;6427;49.754;6.106;2023-03-11T11:42:16;4.83;;;1.73;;
12725;SDS011;6427;49.754;6.106;2023-03-11T11:44:43;7.80;;;1.40;;
12725;SDS011;6427;49.754;6.106;2023-03-11T11:49:38;4.23;;;1.13;;
12725;SDS011;6427;49.754;6.106;2023-03-11T11:54:40;2.47;;;1.40;;
12725;SDS011;6427;49.754;6.106;2023-03-11T11:57:10;6.53;;;1.40;;
12725;SDS011;6427;49.754;6.106;2023-03-11T11:59:37;7.00;;;1.93;;
12725;SDS011;6427;49.754;6.106;2023-03-11T12:02:16;2.83;;;1.10;;
12725;SDS011;6427;49.754;6.106;2023-03-11T12:16:41;6.07;;;1.60;;
12725;SDS011;6427;49.754;6.106;2023-03-11T12:21:23;4.37;;;1.62;;
12725;SDS011;6427;49.754;6.106;2023-03-11T12:24:40;14.37;;;2.03;;
12725;SDS011;6427;49.754;6.106;2023-03-11T12:26:23;2.20;;;1.20;;
12725;SDS011;6427;49.754;6.106;2023-03-11T12:31:38;3.80;;;1.10;;
12725;SDS011;6427;49.754;6.106;2023-03-11T12:34:08;9.60;;;1.65;;
12725;SDS011;6427;49.754;6.106;2023-03-11T12:36:34;4.30;;;1.57;;
12725;SDS011;6427;49.754;6.106;2023-03-11T12:39:02;5.67;;;1.33;;
12725;SDS011;6427;49.754;6.106;2023-03-11T12:41:30;4.63;;;1.30;;
12725;SDS011;6427;49.754;6.106;2023-03-11T12:43:58;5.63;;;1.60;;
12725;SDS011;6427;49.754;6.106;2023-03-11T12:46:58;6.43;;;1.70;;
12725;SDS011;6427;49.754;6.106;2023-03-11T12:49:11;5.90;;;1.30;;
12725;SDS011;6427;49.754;6.106;2023-03-11T12:51:38;5.97;;;1.70;;
12725;SDS011;6427;49.754;6.106;2023-03-11T13:11:05;5.97;;;1.50;;
12725;SDS011;6427;49.754;6.106;2023-03-11T13:16:35;3.43;;;0.90;;
12725;SDS011;6427;49.754;6.106;2023-03-11T13:18:40;3.90;;;1.45;;
12725;SDS011;6427;49.754;6.106;2023-03-11T13:32:37;4.47;;;1.40;;
12725;SDS011;6427;49.754;6.106;2023-03-11T13:35:15;3.30;;;1.67;;
12725;SDS011;6427;49.754;6.106;2023-03-11T13:40:48;3.43;;;1.03;;
12725;SDS011;6427;49.754;6.106;2023-03-11T13:43:17;5.47;;;1.07;;
12725;SDS011;6427;49.754;6.106;2023-03-11T13:45:48;4.03;;;1.00;;
12725;SDS011;6427;49.754;6.106;2023-03-11T13:48:21;3.73;;;1.10;;
12725;SDS011;6427;49.754;6.106;2023-03-11T13:51:34;3.33;;;1.37;;
12725;SDS011;6427;49.754;6.106;2023-03-11T13:53:18;4.57;;;1.23;;
12725;SDS011;6427;49.754;6.106;2023-03-11T13:55:51;3.60;;;0.97;;
12725;SDS011;6427;49.754;6.106;2023-03-11T13:58:20;6.30;;;1.10;;
12725;SDS011;6427;49.754;6.106;2023-03-11T14:00:53;3.67;;;1.30;;
12725;SDS011;6427;49.754;6.106;2023-03-11T14:03:20;4.63;;;1.40;;
12725;SDS011;6427;49.754;6.106;2023-03-11T14:05:49;4.40;;;1.30;;
12725;SDS011;6427;49.754;6.106;2023-03-11T14:08:23;3.93;;;1.10;;
12725;SDS011;6427;49.754;6.106;2023-03-11T14:10:56;3.97;;;1.10;;
12725;SDS011;6427;49.754;6.106;2023-03-11T14:13:27;5.53;;;1.00;;
12725;SDS011;6427;49.754;6.106;2023-03-11T14:15:57;7.33;;;1.20;;
12725;SDS011;6427;49.754;6.106;2023-03-11T14:18:24;5.00;;;1.37;;
12725;SDS011;6427;49.754;6.106;2023-03-11T14:21:19;5.83;;;1.27;;
12725;SDS011;6427;49.754;6.106;2023-03-11T14:23:48;4.13;;;1.20;;
12725;SDS011;6427;49.754;6.106;2023-03-11T14:26:16;6.67;;;1.80;;
12725;SDS011;6427;49.754;6.106;2023-03-11T14:28:43;1.80;;;1.00;;
12725;SDS011;6427;49.754;6.106;2023-03-11T14:33:57;3.87;;;1.20;;
12725;SDS011;6427;49.754;6.106;2023-03-11T14:36:31;6.40;;;2.37;;
12725;SDS011;6427;49.754;6.106;2023-03-11T14:38:57;6.90;;;1.80;;
12725;SDS011;6427;49.754;6.106;2023-03-11T14:41:25;4.60;;;1.00;;
12725;SDS011;6427;49.754;6.106;2023-03-11T14:43:53;6.37;;;1.63;;
12725;SDS011;6427;49.754;6.106;2023-03-11T14:46:22;4.47;;;1.03;;
12725;SDS011;6427;49.754;6.106;2023-03-11T14:48:49;3.27;;;1.07;;
12725;SDS011;6427;49.754;6.106;2023-03-11T14:51:20;6.03;;;1.20;;
12725;SDS011;6427;49.754;6.106;2023-03-11T14:54:06;3.20;;;1.40;;
12725;SDS011;6427;49.754;6.106;2023-03-11T14:56:34;4.87;;;1.30;;
12725;SDS011;6427;49.754;6.106;2023-03-11T14:59:07;6.13;;;1.30;;
12725;SDS011;6427;49.754;6.106;2023-03-11T15:01:34;3.53;;;0.93;;
12725;SDS011;6427;49.754;6.106;2023-03-11T15:04:09;3.23;;;1.10;;
12725;SDS011;6427;49.754;6.106;2023-03-11T15:06:35;8.30;;;1.30;;
12725;SDS011;6427;49.754;6.106;2023-03-11T15:09:11;4.93;;;1.67;;
12725;SDS011;6427;49.754;6.106;2023-03-11T15:25:58;5.28;;;1.58;;
12725;SDS011;6427;49.754;6.106;2023-03-11T15:28:27;3.83;;;1.30;;
12725;SDS011;6427;49.754;6.106;2023-03-11T15:33:50;3.30;;;1.27;;
12725;SDS011;6427;49.754;6.106;2023-03-11T15:36:27;3.77;;;1.30;;
12725;SDS011;6427;49.754;6.106;2023-03-11T15:44:35;1.47;;;0.97;;
12725;SDS011;6427;49.754;6.106;2023-03-11T15:47:02;2.50;;;0.97;;
12725;SDS011;6427;49.754;6.106;2023-03-11T15:49:29;2.17;;;1.07;;
12725;SDS011;6427;49.754;6.106;2023-03-11T15:51:57;5.13;;;1.40;;
12725;SDS011;6427;49.754;6.106;2023-03-11T15:54:24;3.87;;;1.20;;
12725;SDS011;6427;49.754;6.106;2023-03-11T15:56:52;5.45;;;1.50;;
12725;SDS011;6427;49.754;6.106;2023-03-11T15:59:19;4.43;;;1.30;;
12725;SDS011;6427;49.754;6.106;2023-03-11T16:01:48;3.50;;;0.97;;
12725;SDS011;6427;49.754;6.106;2023-03-11T16:04:16;4.10;;;1.20;;
12725;SDS011;6427;49.754;6.106;2023-03-11T16:18:01;6.05;;;1.23;;
12725;SDS011;6427;49.754;6.106;2023-03-11T16:20:33;3.90;;;1.30;;
12725;SDS011;6427;49.754;6.106;2023-03-11T16:22:56;3.13;;;1.10;;
12725;SDS011;6427;49.754;6.106;2023-03-11T16:25:27;5.67;;;1.37;;
12725;SDS011;6427;49.754;6.106;2023-03-11T16:27:55;4.50;;;1.53;;
12725;SDS011;6427;49.754;6.106;2023-03-11T16:30:23;2.50;;;0.90;;
12725;SDS011;6427;49.754;6.106;2023-03-11T16:32:50;6.33;;;1.33;;
12725;SDS011;6427;49.754;6.106;2023-03-11T16:35:18;2.47;;;1.50;;
12725;SDS011;6427;49.754;6.106;2023-03-11T16:37:46;4.00;;;1.10;;
12725;SDS011;6427;49.754;6.106;2023-03-11T16:40:14;2.57;;;1.00;;
12725;SDS011;6427;49.754;6.106;2023-03-11T16:42:40;2.87;;;1.10;;
12725;SDS011;6427;49.754;6.106;2023-03-11T16:45:09;4.20;;;1.30;;
12725;SDS011;6427;49.754;6.106;2023-03-11T16:47:35;3.60;;;1.00;;
12725;SDS011;6427;49.754;6.106;2023-03-11T16:50:03;3.40;;;0.90;;
12725;SDS011;6427;49.754;6.106;2023-03-11T16:52:31;4.00;;;1.17;;
12725;SDS011;6427;49.754;6.106;2023-03-11T16:57:29;5.07;;;1.40;;
12725;SDS011;6427;49.754;6.106;2023-03-11T16:59:56;6.55;;;1.25;;
12725;SDS011;6427;49.754;6.106;2023-03-11T17:02:24;5.87;;;1.50;;
12725;SDS011;6427;49.754;6.106;2023-03-11T17:04:51;3.20;;;1.03;;
12725;SDS011;6427;49.754;6.106;2023-03-11T17:07:19;6.07;;;1.37;;
12725;SDS011;6427;49.754;6.106;2023-03-11T17:09:46;4.40;;;1.33;;
12725;SDS011;6427;49.754;6.106;2023-03-11T17:12:15;8.87;;;1.43;;
12725;SDS011;6427;49.754;6.106;2023-03-11T17:14:42;2.03;;;1.10;;